Indianapolis, IN (46242)

8:52 PM EDT on September 16, 2014 (GMT -0400)
Thompson Medows | Change Station
CLOSE
Current Station
Personal Weather Station
Location: Indianapolis, IN
Elevation: 745 ft
Nearby Weather Stations

Elev 745 ft 39.69 °N, 86.26 °W | Updated 5 minutes ago

Partly Cloudy
Partly Cloudy
54.7 °F
Feels Like 54.7 °F
N
0.0
Wind Variable Wind from SSE

Today
High -- | Low -- °F
--% Chance of Precip.
Yesterday
High -- | Low -- °F
Precip. -- in
7:27 AM 7:51 PM
Last Quarter, 41% visible
Pressure 30.09 in
Visibility 10.0 miles
Clouds Few 4400 ft
Dew Point 49 °F
Humidity 81%
Rainfall 0.02 in
Snow Depth Not available.
UV 0 out of 12
Pollen 6.30 out of 12
Ozone Good
PM2.5 Good
Flu Activity Not available.
METAR KIND 162354Z 11007KT 10SM R05L/5500VP6000FT FEW044 14/09 A3009 RMK AO2 SLP190 T01440094 10194 20144 56008

More Conditions Fewer Conditions

Pressure 30.09 in
Visibility 10.0 miles
Clouds Few 4400 ft
Dew Point 49 °F
Humidity 81%
Rainfall 0.02 in
Snow Depth Not available.
UV 0 out of 12
Pollen 6.30 out of 12
Ozone Good
PM2.5 Good
Flu Activity Not available.
METAR KIND 162354Z 11007KT 10SM R05L/5500VP6000FT FEW044 14/09 A3009 RMK AO2 SLP190 T01440094 10194 20144 56008

More Conditions Fewer Conditions

10-Day Weather Forecast

Almanac

Astronomy

Sep. 16, 2014 Rise Set
Actual Time 7:27 AM EDT 7:51 PM EDT
Civil Twilight 7:00 AM EDT 8:18 PM EDT
Nautical Twilight 6:28 AM EDT 8:50 PM EDT
Astronomical Twilight 5:55 AM EDT 9:23 PM EDT
Moon 12:37 AM EDT (9/16) 3:14 PM EDT (9/16)
Length of Visible Light 13h 18m
Length of Day
12h 24m
Tomorrow will be 2m 35s shorter.
Last Quarter, 41% of the Moon is Illuminated
Today
Last Quarter
Sep 24
New
Oct 1
First Quarter
Oct 8
Full
Oct 15
Last Quarter

Today's Extremes

State Highs State Lows

Community

WunderPhotos

Upload Photos

1,753,935 photos uploaded!

Nearby

Air Quality

  Air Quality AQ Index Pollutant
Yesterday Moderate
PM2.5
Yesterday Good
OZONE
Current Good
OZONE
Current Good
PM2.5
Tuesday Good
PM2.5
Tuesday Good
OZONE
Wednesday Moderate
PM2.5
Wednesday Good
OZONE
Thursday Moderate
PM2.5
Thursday Good
OZONE

Snow Depth

Station Depth Elevation
No new snow has been reported.

Earthquake Activity

City Distance Mag. Time & Date
No recent earthquake activity has been reported nearby.
Minimum magnitude displayed is 2.5.

Coastal Water Temperatures

Place Temperature
No Stations Reporting

Nearby Weather Stations